createdAt,value
2023-06-14T00:00:44.523Z,9.00
2023-06-14T00:03:13.182Z,8.70
2023-06-14T00:05:44.186Z,8.40
2023-06-14T00:08:11.920Z,8.40
2023-06-14T00:10:42.207Z,8.10
2023-06-14T00:13:12.535Z,8.00
2023-06-14T00:15:40.063Z,8.80
2023-06-14T00:18:07.670Z,9.30
2023-06-14T00:20:35.214Z,9.60
2023-06-14T00:23:02.872Z,9.90
2023-06-14T00:25:30.635Z,9.40
2023-06-14T00:27:58.618Z,8.90
2023-06-14T00:30:26.660Z,9.00
2023-06-14T00:32:54.325Z,8.70
2023-06-14T00:35:22.020Z,9.10
2023-06-14T00:37:49.615Z,8.60
2023-06-14T00:40:17.310Z,9.00
2023-06-14T00:42:46.852Z,10.00
2023-06-14T00:45:14.489Z,9.20
2023-06-14T00:47:42.897Z,8.50
2023-06-14T00:50:11.067Z,9.00
2023-06-14T00:52:38.717Z,8.10
2023-06-14T00:55:07.106Z,9.60
2023-06-14T00:57:42.051Z,8.80
2023-06-14T01:00:11.255Z,9.00
2023-06-14T01:02:39.739Z,9.20
2023-06-14T01:05:11.268Z,8.80
2023-06-14T01:07:57.823Z,7.90
2023-06-14T01:10:54.625Z,7.90
2023-06-14T01:13:34.076Z,8.70
2023-06-14T01:16:01.720Z,8.20
2023-06-14T01:18:30.956Z,7.50
2023-06-14T01:20:58.876Z,8.30
2023-06-14T01:23:26.588Z,8.50
2023-06-14T01:25:54.324Z,9.00
2023-06-14T01:28:22.623Z,8.60
2023-06-14T01:30:54.561Z,8.80
2023-06-14T01:33:24.834Z,7.40
2023-06-14T01:35:53.240Z,7.60
2023-06-14T01:38:23.057Z,7.90
2023-06-14T01:40:52.004Z,7.70
2023-06-14T01:43:19.547Z,8.30
2023-06-14T01:45:48.490Z,7.10
2023-06-14T01:48:16.513Z,6.90
2023-06-14T01:50:43.978Z,6.20
2023-06-14T01:53:11.652Z,6.90
2023-06-14T01:55:39.182Z,6.50
2023-06-14T01:58:09.556Z,6.90
2023-06-14T02:00:37.358Z,6.80
2023-06-14T02:03:07.861Z,8.00
2023-06-14T02:05:36.043Z,6.80
2023-06-14T02:08:03.710Z,7.40
2023-06-14T02:10:32.699Z,6.30
2023-06-14T02:13:00.374Z,6.60
2023-06-14T02:15:34.826Z,6.20
2023-06-14T02:18:05.855Z,6.40
2023-06-14T02:20:34.445Z,6.30
2023-06-14T02:23:02.324Z,6.40
2023-06-14T02:25:32.623Z,6.30
2023-06-14T02:28:00.175Z,6.70
2023-06-14T02:30:27.724Z,6.10
2023-06-14T02:32:58.279Z,7.00
2023-06-14T02:35:27.828Z,5.90
2023-06-14T02:37:57.128Z,6.20
2023-06-14T02:40:24.830Z,6.30
2023-06-14T02:42:52.423Z,6.60
2023-06-14T02:45:20.021Z,6.10
2023-06-14T02:47:49.344Z,5.60
2023-06-14T02:50:18.283Z,6.00
2023-06-14T02:52:46.730Z,6.00
2023-06-14T02:55:14.438Z,6.50
2023-06-14T02:57:42.368Z,6.40
2023-06-14T03:00:14.886Z,6.90
2023-06-14T03:02:44.497Z,6.30
2023-06-14T03:05:12.448Z,5.90
2023-06-14T03:07:46.419Z,6.20
2023-06-14T03:10:14.670Z,6.00
2023-06-14T03:12:43.862Z,6.20
2023-06-14T03:15:14.531Z,6.30
2023-06-14T03:17:47.087Z,5.80
2023-06-14T03:20:17.529Z,6.10
2023-06-14T03:22:48.985Z,6.00
2023-06-14T03:25:16.805Z,5.90
2023-06-14T03:27:45.211Z,5.90
2023-06-14T03:30:13.444Z,5.70
2023-06-14T03:32:41.755Z,5.50
2023-06-14T03:35:10.097Z,6.50
2023-06-14T03:37:37.691Z,6.40
2023-06-14T03:40:07.309Z,5.70
2023-06-14T03:42:37.489Z,5.40
2023-06-14T03:45:05.836Z,5.40
2023-06-14T03:47:33.687Z,5.40
2023-06-14T03:50:02.341Z,5.60
2023-06-14T03:52:30.633Z,5.70
2023-06-14T03:55:55.559Z,5.70
2023-06-14T03:57:46.198Z,6.10
2023-06-14T04:00:16.737Z,5.20
2023-06-14T04:02:45.713Z,5.30
2023-06-14T04:05:13.652Z,4.80
2023-06-14T04:07:50.031Z,5.00
2023-06-14T04:10:17.883Z,5.40
2023-06-14T04:12:46.490Z,5.60
2023-06-14T04:15:21.343Z,5.60
2023-06-14T04:17:52.475Z,5.60
2023-06-14T04:20:23.224Z,5.50
2023-06-14T04:22:50.890Z,5.30
2023-06-14T04:25:23.743Z,5.60
2023-06-14T04:27:53.758Z,5.20
2023-06-14T04:30:26.940Z,5.50
2023-06-14T04:32:56.954Z,5.60
2023-06-14T04:35:26.671Z,5.40
2023-06-14T04:37:55.075Z,5.10
2023-06-14T04:40:24.097Z,5.40
2023-06-14T04:42:52.268Z,5.80
2023-06-14T04:45:20.722Z,5.40
2023-06-14T04:47:49.220Z,6.10
2023-06-14T04:50:17.908Z,5.50
2023-06-14T04:52:45.524Z,5.50
2023-06-14T04:55:13.127Z,5.20
2023-06-14T04:57:41.964Z,5.90
2023-06-14T05:00:13.101Z,5.60
2023-06-14T05:02:41.864Z,5.40
2023-06-14T05:05:10.193Z,5.10
2023-06-14T05:07:41.149Z,5.50
2023-06-14T05:10:10.832Z,4.90
2023-06-14T05:12:38.530Z,5.20
2023-06-14T05:15:10.074Z,6.50
2023-06-14T05:17:37.933Z,6.10
2023-06-14T05:20:07.190Z,5.70
2023-06-14T05:22:34.670Z,5.70
2023-06-14T05:25:03.057Z,5.20
2023-06-14T05:27:30.572Z,5.40
2023-06-14T05:29:59.980Z,5.20
2023-06-14T05:32:27.654Z,5.80
2023-06-14T05:34:55.691Z,5.70
2023-06-14T05:37:23.170Z,5.60
2023-06-14T05:39:50.678Z,5.30
2023-06-14T05:42:18.273Z,4.90
2023-06-14T05:44:45.822Z,5.70
2023-06-14T05:47:13.995Z,6.00
2023-06-14T05:49:41.894Z,5.80
2023-06-14T05:52:09.612Z,5.60
2023-06-14T05:54:37.431Z,5.40
2023-06-14T05:57:07.328Z,5.60
2023-06-14T05:59:35.217Z,5.10
2023-06-14T06:02:04.075Z,5.40
2023-06-14T06:04:32.879Z,5.90
2023-06-14T06:07:01.058Z,5.80
2023-06-14T06:09:44.096Z,6.30
2023-06-14T06:12:11.777Z,5.60
2023-06-14T06:14:39.749Z,5.40
2023-06-14T06:17:07.862Z,5.50
2023-06-14T06:19:35.587Z,5.80
2023-06-14T06:22:09.647Z,5.10
2023-06-14T06:24:41.405Z,6.30
2023-06-14T06:29:45.248Z,5.00
2023-06-14T06:32:13.201Z,5.60
2023-06-14T06:34:42.792Z,4.80
2023-06-14T06:37:12.410Z,5.00
2023-06-14T06:39:43.123Z,5.60
2023-06-14T06:42:12.365Z,5.50
2023-06-14T06:44:43.557Z,5.10
2023-06-14T06:47:12.552Z,5.20
2023-06-14T06:49:43.855Z,6.10
2023-06-14T06:52:11.765Z,5.40
2023-06-14T06:54:39.509Z,5.40
2023-06-14T06:57:11.744Z,6.50
2023-06-14T06:59:41.619Z,6.00
2023-06-14T07:02:09.565Z,5.10
2023-06-14T07:04:37.222Z,5.10
2023-06-14T07:07:07.842Z,5.40
2023-06-14T07:09:35.547Z,5.90
2023-06-14T07:12:03.728Z,5.40
2023-06-14T07:14:31.691Z,5.70
2023-06-14T07:16:59.325Z,6.10
2023-06-14T07:19:27.873Z,5.20
2023-06-14T07:21:55.668Z,5.20
2023-06-14T07:24:24.022Z,5.40
2023-06-14T07:26:52.572Z,4.90
2023-06-14T07:29:20.918Z,5.50
2023-06-14T07:31:48.635Z,5.20
2023-06-14T07:34:16.416Z,5.60
2023-06-14T07:36:45.817Z,5.50
2023-06-14T07:39:13.995Z,5.10
2023-06-14T07:41:43.412Z,4.50
2023-06-14T07:44:11.643Z,5.00
2023-06-14T07:46:39.556Z,4.80
2023-06-14T07:49:07.781Z,4.70
2023-06-14T07:51:35.516Z,5.00
2023-06-14T07:54:04.316Z,4.60
2023-06-14T07:56:32.105Z,4.30
2023-06-14T07:59:00.047Z,4.60
2023-06-14T08:01:31.784Z,4.20
2023-06-14T08:04:00.507Z,4.10
2023-06-14T08:06:28.439Z,4.30
2023-06-14T08:08:56.285Z,4.80
2023-06-14T08:11:37.936Z,5.20
2023-06-14T08:14:05.974Z,4.50
2023-06-14T08:16:34.638Z,5.50
2023-06-14T08:19:04.998Z,4.50
2023-06-14T08:21:38.529Z,5.00
2023-06-14T08:24:20.714Z,5.60
2023-06-14T08:26:48.584Z,4.50
2023-06-14T08:29:22.228Z,5.20
2023-06-14T08:31:51.007Z,5.10
2023-06-14T08:34:24.066Z,4.80
2023-06-14T08:36:52.136Z,5.30
2023-06-14T08:39:23.613Z,5.80
2023-06-14T08:41:51.405Z,5.60
2023-06-14T08:44:19.014Z,6.40
2023-06-14T08:46:50.007Z,6.70
2023-06-14T08:49:18.089Z,4.60
2023-06-14T08:51:46.210Z,4.10
2023-06-14T08:54:16.669Z,4.20
2023-06-14T08:56:45.248Z,7.10
2023-06-14T08:59:16.812Z,4.40
2023-06-14T09:02:07.769Z,4.00
2023-06-14T09:04:42.667Z,4.20
2023-06-14T09:07:11.470Z,4.70
2023-06-14T09:09:52.916Z,4.30
2023-06-14T09:12:32.324Z,4.50
2023-06-14T09:15:00.199Z,4.60
2023-06-14T09:17:31.434Z,4.00
2023-06-14T09:20:04.364Z,4.60
2023-06-14T09:22:37.607Z,4.20
2023-06-14T09:25:06.558Z,4.40
2023-06-14T09:27:36.115Z,4.00
2023-06-14T09:30:05.161Z,3.70
2023-06-14T09:32:32.868Z,4.10
2023-06-14T09:35:03.600Z,3.80
2023-06-14T09:37:31.770Z,3.90
2023-06-14T09:39:59.656Z,3.90
2023-06-14T09:42:27.469Z,3.90
2023-06-14T09:44:56.561Z,3.80
2023-06-14T09:47:26.792Z,3.50
2023-06-14T09:50:00.467Z,4.40
2023-06-14T09:52:28.333Z,4.10
2023-06-14T09:54:56.205Z,3.50
2023-06-14T09:57:24.328Z,4.20
2023-06-14T09:59:57.240Z,3.90
2023-06-14T10:02:39.874Z,4.50
2023-06-14T10:05:10.483Z,3.90
2023-06-14T10:08:10.661Z,4.60
2023-06-14T10:10:41.953Z,3.70
2023-06-14T10:13:10.056Z,3.70
2023-06-14T10:16:23.555Z,3.70
2023-06-14T10:18:54.571Z,3.90
2023-06-14T10:21:32.842Z,3.30
2023-06-14T10:24:16.743Z,3.80
2023-06-14T10:26:53.576Z,3.30
2023-06-14T10:29:25.392Z,3.40
2023-06-14T10:31:58.209Z,4.20
2023-06-14T10:34:30.613Z,3.90
2023-06-14T10:37:04.157Z,3.50
2023-06-14T10:39:33.327Z,3.50
2023-06-14T10:42:06.969Z,3.30
2023-06-14T10:44:55.166Z,3.90
2023-06-14T10:47:37.971Z,3.70
2023-06-14T10:50:10.286Z,4.00
2023-06-14T10:52:46.971Z,3.70
2023-06-14T10:55:24.304Z,3.80
2023-06-14T10:58:00.257Z,4.30
2023-06-14T11:00:35.851Z,4.00
2023-06-14T11:03:30.360Z,4.70
2023-06-14T11:05:59.256Z,4.40
2023-06-14T11:08:53.714Z,4.10
2023-06-14T11:11:27.864Z,4.30
2023-06-14T11:16:24.098Z,3.90
2023-06-14T11:18:53.933Z,5.70
2023-06-14T11:21:26.658Z,6.30
2023-06-14T11:23:57.621Z,7.40
2023-06-14T11:26:35.196Z,6.70
2023-06-14T11:29:02.876Z,7.20
2023-06-14T11:31:32.246Z,7.50
2023-06-14T11:34:08.395Z,6.10
2023-06-14T11:36:36.845Z,6.40
2023-06-14T11:39:10.043Z,5.80
2023-06-14T11:41:46.093Z,5.60
2023-06-14T11:44:14.268Z,5.50
2023-06-14T11:46:42.289Z,5.30
2023-06-14T11:49:13.537Z,5.20
2023-06-14T11:51:42.420Z,5.00
2023-06-14T11:54:10.248Z,7.10
2023-06-14T11:56:38.083Z,5.40
2023-06-14T11:59:07.332Z,7.80
2023-06-14T12:01:40.001Z,6.20
2023-06-14T12:04:09.297Z,5.60
2023-06-14T12:06:41.511Z,5.30
2023-06-14T12:09:15.240Z,5.90
2023-06-14T12:11:43.010Z,4.80
2023-06-14T12:14:10.929Z,5.40
2023-06-14T12:16:43.101Z,4.90
2023-06-14T12:19:19.874Z,4.90
2023-06-14T12:21:52.499Z,5.30
2023-06-14T12:24:20.480Z,4.60
2023-06-14T12:26:48.531Z,4.90
2023-06-14T12:29:18.938Z,4.80
2023-06-14T12:31:47.543Z,4.60
2023-06-14T12:34:18.171Z,5.30
2023-06-14T12:36:47.918Z,5.10
2023-06-14T12:39:15.557Z,5.10
2023-06-14T12:41:43.958Z,4.70
2023-06-14T12:44:14.390Z,5.20
2023-06-14T12:46:55.303Z,6.00
2023-06-14T12:49:33.074Z,5.30
2023-06-14T12:52:01.377Z,4.90
2023-06-14T12:54:42.407Z,4.80
2023-06-14T12:57:15.216Z,4.90
2023-06-14T12:59:43.215Z,4.90
2023-06-14T13:02:16.639Z,5.00
2023-06-14T13:04:48.031Z,5.10
2023-06-14T13:07:16.308Z,4.60
2023-06-14T13:09:44.362Z,4.30
2023-06-14T13:12:14.776Z,4.80
2023-06-14T13:14:43.436Z,4.40
2023-06-14T13:17:14.517Z,6.90
2023-06-14T13:19:43.642Z,5.30
2023-06-14T13:22:13.730Z,4.80
2023-06-14T13:24:45.139Z,5.60
2023-06-14T13:27:15.708Z,5.60
2023-06-14T13:29:46.520Z,5.00
2023-06-14T13:32:14.145Z,5.20
2023-06-14T13:34:42.087Z,5.80
2023-06-14T13:37:10.677Z,4.60
2023-06-14T13:39:39.419Z,5.40
2023-06-14T13:42:10.073Z,5.10
2023-06-14T13:44:37.744Z,6.00
2023-06-14T13:47:05.768Z,5.20
2023-06-14T13:49:35.674Z,5.10
2023-06-14T13:52:04.445Z,4.90
2023-06-14T13:54:32.663Z,4.60
2023-06-14T13:57:01.641Z,4.80
2023-06-14T13:59:30.392Z,4.60
2023-06-14T14:02:22.329Z,4.10
2023-06-14T14:04:54.754Z,4.50
2023-06-14T14:07:24.112Z,9.10
2023-06-14T14:09:52.308Z,5.10
2023-06-14T14:12:20.295Z,4.50
2023-06-14T14:14:48.861Z,4.80
2023-06-14T14:17:19.643Z,5.00
2023-06-14T14:19:47.770Z,5.70
2023-06-14T14:22:15.591Z,5.00
2023-06-14T14:24:43.555Z,5.40
2023-06-14T14:27:11.726Z,5.30
2023-06-14T14:29:39.649Z,5.90
2023-06-14T14:32:14.899Z,4.80
2023-06-14T14:34:48.311Z,5.10
2023-06-14T14:37:20.378Z,4.90
2023-06-14T14:39:51.184Z,6.10
2023-06-14T14:42:33.374Z,5.00
2023-06-14T14:45:05.555Z,5.80
2023-06-14T14:47:33.227Z,5.40
2023-06-14T14:50:01.413Z,4.60
2023-06-14T14:52:31.144Z,4.60
2023-06-14T14:54:58.706Z,5.80
2023-06-14T14:57:26.441Z,6.60
2023-06-14T14:59:54.778Z,4.60
2023-06-14T15:02:24.183Z,5.80
2023-06-14T15:04:53.370Z,8.20
2023-06-14T15:07:21.915Z,5.90
2023-06-14T15:09:52.399Z,5.00
2023-06-14T15:12:21.497Z,4.50
2023-06-14T15:14:49.123Z,4.50
2023-06-14T15:17:16.967Z,4.70
2023-06-14T15:19:46.186Z,4.50
2023-06-14T15:22:13.760Z,5.10
2023-06-14T15:24:43.923Z,4.80
2023-06-14T15:27:13.736Z,5.10
2023-06-14T15:29:46.216Z,4.30
2023-06-14T15:32:14.787Z,4.60
2023-06-14T15:34:42.378Z,5.00
2023-06-14T15:37:10.180Z,4.50
2023-06-14T15:39:37.994Z,4.60
2023-06-14T15:42:06.855Z,4.70
2023-06-14T15:44:34.446Z,4.30
2023-06-14T15:47:01.977Z,4.60
2023-06-14T15:49:29.583Z,4.50
2023-06-14T15:51:58.920Z,4.10
2023-06-14T15:54:26.571Z,4.40
2023-06-14T15:56:54.413Z,4.90
2023-06-14T15:59:22.798Z,5.10
2023-06-14T16:01:50.429Z,4.40
2023-06-14T16:04:18.200Z,4.70
2023-06-14T16:06:46.423Z,4.20
2023-06-14T16:09:13.995Z,4.40
2023-06-14T16:11:42.120Z,3.90
2023-06-14T16:14:09.812Z,4.20
2023-06-14T16:16:40.270Z,4.60
2023-06-14T16:19:10.193Z,4.60
2023-06-14T16:21:38.181Z,4.70
2023-06-14T16:24:06.266Z,5.40
2023-06-14T16:26:35.747Z,5.10
2023-06-14T16:29:03.450Z,5.10
2023-06-14T16:31:30.961Z,5.10
2023-06-14T16:33:58.570Z,4.80
2023-06-14T16:36:26.651Z,4.50
2023-06-14T16:38:54.608Z,5.00
2023-06-14T16:41:22.207Z,4.30
2023-06-14T16:43:49.947Z,4.40
2023-06-14T16:46:18.777Z,4.00
2023-06-14T16:48:46.420Z,4.80
2023-06-14T16:51:13.928Z,4.50
2023-06-14T16:53:41.667Z,4.70
2023-06-14T16:56:09.240Z,4.90
2023-06-14T16:58:38.929Z,5.10
2023-06-14T17:01:06.518Z,5.00
2023-06-14T17:03:35.294Z,5.20
2023-06-14T17:06:02.908Z,4.60
2023-06-14T17:08:30.473Z,4.80
2023-06-14T17:11:01.357Z,5.20
2023-06-14T17:13:29.114Z,5.00
2023-06-14T17:15:56.710Z,5.10
2023-06-14T17:18:24.372Z,4.80
2023-06-14T17:20:52.820Z,4.70
2023-06-14T17:23:21.005Z,4.10
2023-06-14T17:25:48.481Z,4.60
2023-06-14T17:28:16.070Z,4.20
2023-06-14T17:30:44.005Z,4.70
2023-06-14T17:33:14.859Z,5.30
2023-06-14T17:35:43.203Z,4.80
2023-06-14T17:38:12.743Z,5.20
2023-06-14T17:40:49.937Z,5.20
2023-06-14T17:43:19.435Z,4.80
2023-06-14T17:45:47.029Z,5.10
2023-06-14T17:48:14.645Z,5.10
2023-06-14T17:50:42.431Z,4.80
2023-06-14T17:53:09.978Z,5.30
2023-06-14T17:55:37.522Z,6.00
2023-06-14T17:58:06.477Z,5.80
2023-06-14T18:00:34.073Z,5.60
2023-06-14T18:03:13.393Z,5.90
2023-06-14T18:05:45.796Z,5.30
2023-06-14T18:08:13.747Z,5.00
2023-06-14T18:10:41.501Z,4.80
2023-06-14T18:13:09.224Z,5.60
2023-06-14T18:15:37.913Z,5.40
2023-06-14T18:18:05.771Z,5.00
2023-06-14T18:20:33.647Z,4.60
2023-06-14T18:23:01.174Z,5.20
2023-06-14T18:25:28.835Z,5.40
2023-06-14T18:27:56.519Z,6.80
2023-06-14T18:30:24.276Z,5.70
2023-06-14T18:32:51.992Z,6.50
2023-06-14T18:35:19.901Z,5.70
2023-06-14T18:37:47.851Z,5.60
2023-06-14T18:40:15.612Z,6.00
2023-06-14T18:42:43.628Z,7.10
2023-06-14T18:45:11.383Z,6.70
2023-06-14T18:47:39.087Z,7.40
2023-06-14T18:50:07.062Z,6.80
2023-06-14T18:52:34.732Z,7.30
2023-06-14T18:55:05.390Z,7.20
2023-06-14T18:57:33.654Z,7.10
2023-06-14T19:00:01.237Z,6.50
2023-06-14T19:02:29.238Z,7.90
2023-06-14T19:04:56.909Z,6.50
2023-06-14T19:07:24.411Z,6.60
2023-06-14T19:09:51.926Z,6.20
2023-06-14T19:12:19.536Z,6.60
2023-06-14T19:14:47.208Z,6.90
2023-06-14T19:17:16.567Z,7.60
2023-06-14T19:19:46.399Z,9.70
2023-06-14T19:22:14.954Z,9.30
2023-06-14T19:24:42.564Z,8.90
2023-06-14T19:27:13.279Z,9.20
2023-06-14T19:29:40.688Z,8.40
2023-06-14T19:32:08.640Z,8.30
2023-06-14T19:34:36.465Z,8.20
2023-06-14T19:37:05.646Z,7.50
2023-06-14T19:39:33.125Z,7.30
2023-06-14T19:42:00.595Z,7.20
2023-06-14T19:44:28.021Z,6.80
2023-06-14T19:46:55.765Z,7.00
2023-06-14T19:49:23.329Z,7.10
2023-06-14T19:51:50.973Z,6.70
2023-06-14T19:54:18.558Z,6.30
2023-06-14T19:56:46.537Z,6.20
2023-06-14T19:59:14.093Z,6.50
2023-06-14T20:01:41.786Z,6.00
2023-06-14T20:04:09.691Z,6.20
2023-06-14T20:06:37.622Z,6.70
2023-06-14T20:09:12.862Z,6.40
2023-06-14T20:11:40.925Z,6.00
2023-06-14T20:14:08.485Z,6.30
2023-06-14T20:16:36.106Z,6.50
2023-06-14T20:19:04.174Z,6.60
2023-06-14T20:21:31.779Z,6.30
2023-06-14T20:23:59.347Z,6.40
2023-06-14T20:26:27.525Z,6.80
2023-06-14T20:28:55.232Z,6.80
2023-06-14T20:31:23.539Z,6.10
2023-06-14T20:33:51.133Z,5.90
2023-06-14T20:36:19.488Z,5.70
2023-06-14T20:38:47.002Z,6.50
2023-06-14T20:41:14.561Z,6.50
2023-06-14T20:43:44.137Z,6.20
2023-06-14T20:46:11.719Z,5.70
2023-06-14T20:48:39.282Z,5.90
2023-06-14T20:51:06.889Z,5.80
2023-06-14T20:53:34.478Z,6.40
2023-06-14T20:56:01.963Z,6.60
2023-06-14T20:58:29.612Z,6.50
2023-06-14T21:00:57.905Z,7.00
2023-06-14T21:03:26.694Z,5.90
2023-06-14T21:05:54.392Z,5.90
2023-06-14T21:08:21.874Z,6.10
2023-06-14T21:10:49.387Z,6.20
2023-06-14T21:13:16.985Z,6.40
2023-06-14T21:15:44.745Z,6.40
2023-06-14T21:18:12.326Z,6.70
2023-06-14T21:20:39.950Z,6.20
2023-06-14T21:23:07.581Z,6.20
2023-06-14T21:25:35.157Z,6.20
2023-06-14T21:28:02.781Z,6.20
2023-06-14T21:30:36.884Z,5.80
2023-06-14T21:33:04.909Z,6.40
2023-06-14T21:35:32.524Z,6.00
2023-06-14T21:38:00.465Z,6.20
2023-06-14T21:40:28.098Z,6.10
2023-06-14T21:42:55.712Z,5.30
2023-06-14T21:45:23.467Z,6.50
2023-06-14T21:47:51.901Z,5.90
2023-06-14T21:50:19.907Z,6.10
2023-06-14T21:52:47.767Z,5.90
2023-06-14T21:55:15.436Z,6.30
2023-06-14T21:57:42.979Z,6.50
2023-06-14T22:00:12.360Z,6.10
2023-06-14T22:02:39.959Z,6.70
2023-06-14T22:05:07.800Z,6.40
2023-06-14T22:07:35.350Z,6.40
2023-06-14T22:10:02.958Z,6.80
2023-06-14T22:12:30.613Z,6.40
2023-06-14T22:14:58.469Z,6.20
2023-06-14T22:17:27.804Z,6.10
2023-06-14T22:19:55.483Z,6.80
2023-06-14T22:22:26.351Z,6.40
2023-06-14T22:24:54.035Z,6.70
2023-06-14T22:27:22.821Z,6.70
2023-06-14T22:29:52.769Z,7.10
2023-06-14T22:32:21.366Z,6.30
2023-06-14T22:34:48.924Z,6.70
2023-06-14T22:37:19.443Z,6.80
2023-06-14T22:39:47.084Z,7.10
2023-06-14T22:42:19.424Z,6.50
2023-06-14T22:44:51.774Z,6.50
2023-06-14T22:47:21.822Z,6.60
2023-06-14T22:50:08.371Z,6.40
2023-06-14T22:52:41.722Z,6.30
2023-06-14T22:55:10.050Z,6.20
2023-06-14T22:57:39.124Z,6.70
2023-06-14T23:00:12.392Z,6.40
2023-06-14T23:02:40.685Z,7.00
2023-06-14T23:05:13.176Z,6.10
2023-06-14T23:07:41.182Z,6.40
2023-06-14T23:10:09.392Z,5.20
2023-06-14T23:12:36.930Z,5.00
2023-06-14T23:15:05.593Z,5.40
2023-06-14T23:17:33.546Z,6.00
2023-06-14T23:20:11.428Z,6.00
2023-06-14T23:22:43.260Z,5.50
2023-06-14T23:25:11.177Z,5.90
2023-06-14T23:27:39.336Z,5.60
2023-06-14T23:30:07.936Z,6.20
2023-06-14T23:32:36.273Z,6.40
2023-06-14T23:35:04.686Z,6.00
2023-06-14T23:37:32.124Z,6.00
2023-06-14T23:40:02.320Z,5.80
2023-06-14T23:42:33.103Z,5.80
2023-06-14T23:45:02.733Z,5.60
2023-06-14T23:47:35.187Z,5.40
2023-06-14T23:50:02.933Z,5.40
2023-06-14T23:52:32.606Z,5.60
2023-06-14T23:55:13.336Z,6.40
2023-06-14T23:57:41.379Z,5.90
